Terminal Aerodrome Forecast
Issued by NWS Charleston, WV

Current Version | Previous Version | Graphics & Text | Print | Product List | Glossary On
Versions: 1 2 3 4 5 6 7 8 9 10 11 12 13 14 15 16 17 18 19 20 21 22 23
000
FTUS41 KRLX 161732
TAFEKN
TAF
KEKN 161732Z 1618/1718 VRB03KT P6SM OVC020
     FM162200 18004KT P6SM OVC035
     FM170800 18004KT P6SM -SHRA OVC035
     FM171000 19004KT 4SM -SHRA OVC025
     FM171200 19004KT 2SM -SHRA OVC008
     FM171500 19005KT 3SM -SHRA OVC010=

USA.gov is the U.S. government's official web portal to all federal, state and local government web resources and services.